createdAt,value
2016-03-31T00:00:30.113Z,0
2016-03-31T00:01:29.882Z,0
2016-03-31T00:02:29.931Z,0
2016-03-31T00:03:30.293Z,0
2016-03-31T00:04:29.906Z,0
2016-03-31T00:05:30.143Z,0
2016-03-31T00:06:30.098Z,0
2016-03-31T00:07:30.147Z,0
2016-03-31T00:08:30.369Z,0
2016-03-31T00:09:58.515Z,0
2016-03-31T00:10:44.062Z,0
2016-03-31T00:11:30.392Z,0
2016-03-31T00:12:43.927Z,0
2016-03-31T00:13:29.945Z,0
2016-03-31T00:14:29.917Z,0
2016-03-31T00:15:44.826Z,0
2016-03-31T00:16:29.985Z,0
2016-03-31T00:17:30.102Z,0
2016-03-31T00:18:30.437Z,0
2016-03-31T00:20:30.394Z,0
2016-03-31T00:21:29.959Z,0
2016-03-31T00:22:30.149Z,0
2016-03-31T00:23:29.635Z,0
2016-03-31T00:24:29.967Z,0
2016-03-31T00:25:30.157Z,0
2016-03-31T00:26:44.254Z,0
2016-03-31T00:27:30.163Z,0
2016-03-31T00:28:29.993Z,0
2016-03-31T00:29:58.343Z,0
2016-03-31T00:30:29.879Z,0
2016-03-31T00:31:30.037Z,0
2016-03-31T00:32:29.888Z,0
2016-03-31T00:33:29.968Z,0
2016-03-31T00:34:44.251Z,0
2016-03-31T00:35:30.426Z,0
2016-03-31T00:36:30.351Z,0
2016-03-31T00:37:30.167Z,0
2016-03-31T00:38:30.622Z,0
2016-03-31T00:39:29.952Z,0
2016-03-31T00:40:44.050Z,0
2016-03-31T00:41:30.348Z,0
2016-03-31T00:42:29.945Z,0
2016-03-31T00:43:30.198Z,0
2016-03-31T00:44:30.419Z,0
2016-03-31T00:45:30.781Z,0
2016-03-31T00:46:29.956Z,0
2016-03-31T00:47:30.505Z,0
2016-03-31T00:48:30.399Z,0
2016-03-31T00:49:30.589Z,0
2016-03-31T00:50:30.763Z,0
2016-03-31T00:51:29.970Z,0
2016-03-31T00:52:30.378Z,0
2016-03-31T00:53:44.460Z,0
2016-03-31T00:54:30.165Z,0
2016-03-31T00:55:44.511Z,0
2016-03-31T00:56:44.279Z,0
2016-03-31T00:57:30.188Z,0
2016-03-31T00:58:30.582Z,0
2016-03-31T00:59:30.210Z,0
2016-03-31T01:00:30.196Z,0
2016-03-31T01:01:30.293Z,0
2016-03-31T01:02:30.640Z,0
2016-03-31T01:03:43.595Z,0
2016-03-31T01:05:30.195Z,0
2016-03-31T01:06:29.525Z,0
2016-03-31T01:07:29.731Z,0
2016-03-31T01:08:30.000Z,0
2016-03-31T01:09:30.205Z,0
2016-03-31T01:10:30.849Z,0
2016-03-31T01:11:44.508Z,0
2016-03-31T01:12:30.479Z,0
2016-03-31T01:13:30.434Z,0
2016-03-31T01:14:30.250Z,0
2016-03-31T01:15:30.019Z,0
2016-03-31T01:16:30.255Z,0
2016-03-31T01:17:30.352Z,0
2016-03-31T01:18:29.558Z,0
2016-03-31T01:19:30.029Z,0
2016-03-31T01:20:29.578Z,0
2016-03-31T01:21:30.252Z,0
2016-03-31T01:22:29.958Z,0
2016-03-31T01:23:44.336Z,0
2016-03-31T01:24:30.011Z,0
2016-03-31T01:26:30.079Z,0
2016-03-31T01:27:44.143Z,0
2016-03-31T01:28:44.615Z,0
2016-03-31T01:29:30.665Z,0
2016-03-31T01:30:30.308Z,0
2016-03-31T01:31:44.389Z,0
2016-03-31T01:32:29.923Z,0
2016-03-31T01:33:30.442Z,0
2016-03-31T01:34:30.694Z,0
2016-03-31T01:35:30.259Z,0
2016-03-31T01:36:30.043Z,0
2016-03-31T01:37:44.389Z,0
2016-03-31T01:38:30.048Z,0
2016-03-31T01:39:30.490Z,0
2016-03-31T01:40:29.617Z,0
2016-03-31T01:41:30.306Z,0
2016-03-31T01:42:30.279Z,0
2016-03-31T01:43:30.562Z,0
2016-03-31T01:44:58.458Z,0
2016-03-31T01:45:30.520Z,0
2016-03-31T01:46:30.070Z,0
2016-03-31T01:47:30.323Z,0
2016-03-31T01:48:29.575Z,0
2016-03-31T01:49:30.563Z,0
2016-03-31T01:50:30.534Z,0
2016-03-31T01:51:30.318Z,0
2016-03-31T01:52:30.102Z,0
2016-03-31T01:53:30.074Z,0
2016-03-31T01:54:30.091Z,0
2016-03-31T01:55:30.329Z,0
2016-03-31T01:56:30.285Z,0
2016-03-31T01:57:30.099Z,0
2016-03-31T01:58:30.134Z,0
2016-03-31T01:59:30.324Z,0
2016-03-31T02:00:30.108Z,0
2016-03-31T02:01:30.313Z,0
2016-03-31T02:02:30.145Z,0
2016-03-31T02:03:30.304Z,0
2016-03-31T02:04:30.134Z,0
2016-03-31T02:05:30.528Z,0
2016-03-31T02:06:30.156Z,0
2016-03-31T02:08:30.372Z,0
2016-03-31T02:09:30.125Z,0
2016-03-31T02:10:44.424Z,0
2016-03-31T02:11:30.131Z,0
2016-03-31T02:12:29.883Z,0
2016-03-31T02:13:31.293Z,0
2016-03-31T02:14:30.123Z,0
2016-03-31T02:15:30.157Z,0
2016-03-31T02:16:30.128Z,0
2016-03-31T02:17:31.118Z,0
2016-03-31T02:18:30.559Z,0
2016-03-31T02:19:30.140Z,0
2016-03-31T02:20:30.158Z,0
2016-03-31T02:21:30.567Z,0
2016-03-31T02:22:44.648Z,0
2016-03-31T02:23:30.587Z,0
2016-03-31T02:24:30.387Z,0
2016-03-31T02:25:44.889Z,0
2016-03-31T02:27:30.161Z,0
2016-03-31T02:28:30.194Z,0
2016-03-31T02:29:30.150Z,0
2016-03-31T02:30:30.388Z,0
2016-03-31T02:31:30.202Z,0
2016-03-31T02:32:30.518Z,0
2016-03-31T02:33:44.474Z,0
2016-03-31T02:34:29.945Z,0
2016-03-31T02:35:30.572Z,0
2016-03-31T02:36:30.169Z,0
2016-03-31T02:37:30.422Z,0
2016-03-31T02:38:30.190Z,0
2016-03-31T02:39:30.177Z,0
2016-03-31T02:40:45.118Z,0
2016-03-31T02:41:30.401Z,0
2016-03-31T02:42:30.405Z,0
2016-03-31T02:43:30.141Z,0
2016-03-31T02:44:30.394Z,0
2016-03-31T02:46:30.400Z,0
2016-03-31T02:47:30.574Z,0
2016-03-31T02:48:30.639Z,0
2016-03-31T02:49:44.751Z,0
2016-03-31T02:50:30.207Z,0
2016-03-31T02:51:30.272Z,0
2016-03-31T02:52:30.432Z,0
2016-03-31T02:53:30.246Z,0
2016-03-31T02:54:30.249Z,0
2016-03-31T02:55:30.236Z,0
2016-03-31T02:56:30.411Z,0
2016-03-31T02:57:30.211Z,0
2016-03-31T02:58:30.228Z,0
2016-03-31T02:59:30.278Z,0
2016-03-31T03:00:29.500Z,0
2016-03-31T03:01:30.455Z,0
2016-03-31T03:02:30.771Z,0
2016-03-31T03:03:44.586Z,0
2016-03-31T03:04:30.667Z,0
2016-03-31T03:05:44.560Z,0
2016-03-31T03:06:30.641Z,0
2016-03-31T03:07:31.491Z,0
2016-03-31T03:08:29.610Z,0
2016-03-31T03:09:30.909Z,0
2016-03-31T03:10:30.646Z,0
2016-03-31T03:12:29.949Z,0
2016-03-31T03:13:31.077Z,0
2016-03-31T03:14:44.361Z,0
2016-03-31T03:15:30.472Z,0
2016-03-31T03:16:44.600Z,0
2016-03-31T03:17:30.588Z,0
2016-03-31T03:18:30.247Z,0
2016-03-31T03:19:30.468Z,0
2016-03-31T03:20:30.704Z,0
2016-03-31T03:21:30.239Z,0
2016-03-31T03:22:30.366Z,0
2016-03-31T03:23:30.291Z,0
2016-03-31T03:24:30.685Z,0
2016-03-31T03:26:30.705Z,0
2016-03-31T03:27:30.489Z,0
2016-03-31T03:28:30.946Z,0
2016-03-31T03:29:30.479Z,0
2016-03-31T03:30:30.715Z,0
2016-03-31T03:31:30.282Z,0
2016-03-31T03:32:30.331Z,0
2016-03-31T03:33:30.287Z,0
2016-03-31T03:34:44.634Z,0
2016-03-31T03:35:30.558Z,0
2016-03-31T03:36:44.591Z,0
2016-03-31T03:37:29.375Z,0
2016-03-31T03:38:30.269Z,0
2016-03-31T03:39:30.318Z,0
2016-03-31T03:40:30.336Z,0
2016-03-31T03:41:30.495Z,0
2016-03-31T03:42:44.389Z,0
2016-03-31T03:43:30.516Z,0
2016-03-31T03:44:30.567Z,0
2016-03-31T03:45:30.303Z,0
2016-03-31T03:46:30.540Z,0
2016-03-31T03:47:30.606Z,0
2016-03-31T03:48:30.764Z,0
2016-03-31T03:49:30.549Z,0
2016-03-31T03:50:30.394Z,0
2016-03-31T03:51:30.522Z,0
2016-03-31T03:52:30.572Z,0
2016-03-31T03:53:30.325Z,0
2016-03-31T03:54:30.391Z,0
2016-03-31T03:55:30.752Z,0
2016-03-31T03:56:44.629Z,0
2016-03-31T03:57:30.305Z,0
2016-03-31T03:58:30.729Z,0
2016-03-31T03:59:44.669Z,0
2016-03-31T04:00:30.734Z,0
2016-03-31T04:01:30.753Z,0
2016-03-31T04:02:44.567Z,0
2016-03-31T04:03:30.336Z,0
2016-03-31T04:04:30.573Z,0
2016-03-31T04:05:44.435Z,0
2016-03-31T04:06:30.344Z,0
2016-03-31T04:07:30.550Z,0
2016-03-31T04:08:30.334Z,0
2016-03-31T04:09:44.680Z,0
2016-03-31T04:10:30.761Z,0
2016-03-31T04:11:30.405Z,0
2016-03-31T04:12:30.430Z,0
2016-03-31T04:13:32.349Z,0
2016-03-31T04:14:30.680Z,0
2016-03-31T04:15:44.865Z,0
2016-03-31T04:16:30.462Z,0
2016-03-31T04:18:30.529Z,0
2016-03-31T04:19:30.377Z,0
2016-03-31T04:20:30.332Z,0
2016-03-31T04:21:30.381Z,0
2016-03-31T04:22:44.478Z,0
2016-03-31T04:23:30.809Z,0
2016-03-31T04:24:30.546Z,0
2016-03-31T04:25:30.595Z,0
2016-03-31T04:26:30.620Z,0
2016-03-31T04:27:44.799Z,0
2016-03-31T04:28:30.761Z,0
2016-03-31T04:29:45.129Z,0
2016-03-31T04:30:30.626Z,0
2016-03-31T04:31:30.413Z,0
2016-03-31T04:32:31.138Z,0
2016-03-31T04:33:30.784Z,0
2016-03-31T04:34:30.712Z,0
2016-03-31T04:35:44.855Z,0
2016-03-31T04:36:30.723Z,0
2016-03-31T04:37:45.279Z,0
2016-03-31T04:38:31.148Z,0
2016-03-31T04:39:30.953Z,0
2016-03-31T04:40:31.008Z,0
2016-03-31T04:41:31.076Z,0
2016-03-31T04:42:31.191Z,0
2016-03-31T04:43:30.773Z,0
2016-03-31T04:44:30.653Z,0
2016-03-31T04:45:31.221Z,0
2016-03-31T04:46:31.428Z,5
2016-03-31T04:47:31.118Z,5
2016-03-31T04:48:31.014Z,5
2016-03-31T04:49:31.017Z,5
2016-03-31T04:50:45.380Z,5
2016-03-31T04:52:30.386Z,5
2016-03-31T04:53:31.077Z,5
2016-03-31T04:54:45.142Z,5
2016-03-31T04:55:45.364Z,5
2016-03-31T04:56:31.086Z,5
2016-03-31T04:57:30.855Z,5
2016-03-31T04:58:31.108Z,5
2016-03-31T04:59:31.422Z,5
2016-03-31T05:00:30.878Z,5
2016-03-31T05:01:31.069Z,10
2016-03-31T05:02:45.430Z,10
2016-03-31T05:03:30.825Z,10
2016-03-31T05:04:30.858Z,10
2016-03-31T05:05:30.861Z,10
2016-03-31T05:06:31.083Z,10
2016-03-31T05:07:31.289Z,10
2016-03-31T05:08:30.853Z,10
2016-03-31T05:09:31.278Z,10
2016-03-31T05:10:30.843Z,10
2016-03-31T05:11:44.939Z,10
2016-03-31T05:12:31.099Z,10
2016-03-31T05:13:30.866Z,10
2016-03-31T05:14:31.088Z,10
2016-03-31T05:15:30.935Z,10
2016-03-31T05:17:30.894Z,15
2016-03-31T05:18:30.865Z,20
2016-03-31T05:19:30.867Z,20
2016-03-31T05:20:30.886Z,15
2016-03-31T05:21:31.326Z,15
2016-03-31T05:22:31.313Z,15
2016-03-31T05:23:31.315Z,15
2016-03-31T05:24:45.443Z,20
2016-03-31T05:25:30.899Z,20
2016-03-31T05:26:45.418Z,25
2016-03-31T05:27:31.312Z,30
2016-03-31T05:28:31.329Z,30
2016-03-31T05:30:31.320Z,30
2016-03-31T05:31:30.915Z,30
2016-03-31T05:33:30.936Z,20
2016-03-31T05:34:31.142Z,15
2016-03-31T05:35:31.144Z,15
2016-03-31T05:36:31.116Z,20
2016-03-31T05:37:30.431Z,20
2016-03-31T05:38:45.433Z,30
2016-03-31T05:39:30.937Z,30
2016-03-31T05:40:31.346Z,30
2016-03-31T05:41:45.020Z,30
2016-03-31T05:42:45.022Z,30
2016-03-31T05:43:31.572Z,25
2016-03-31T05:44:30.918Z,25
2016-03-31T05:45:31.156Z,25
2016-03-31T05:46:31.127Z,20
2016-03-31T05:47:31.161Z,20
2016-03-31T05:48:31.351Z,20
2016-03-31T05:49:30.933Z,25
2016-03-31T05:50:30.982Z,30
2016-03-31T05:51:30.953Z,35
2016-03-31T05:52:30.957Z,35
2016-03-31T05:53:30.974Z,35
2016-03-31T05:54:31.399Z,30
2016-03-31T05:55:31.637Z,35
2016-03-31T05:56:30.701Z,35
2016-03-31T05:57:30.985Z,40
2016-03-31T05:58:31.019Z,40
2016-03-31T05:59:31.022Z,40
2016-03-31T06:00:31.180Z,40
2016-03-31T06:01:31.528Z,45
2016-03-31T06:03:30.517Z,55
2016-03-31T06:04:31.004Z,55
2016-03-31T06:05:31.194Z,60
2016-03-31T06:06:31.197Z,65
2016-03-31T06:07:30.997Z,70
2016-03-31T06:08:31.233Z,75
2016-03-31T06:09:31.205Z,75
2016-03-31T06:10:31.192Z,70
2016-03-31T06:11:45.086Z,65
2016-03-31T06:12:30.978Z,60
2016-03-31T06:13:45.091Z,55
2016-03-31T06:14:45.109Z,50
2016-03-31T06:15:31.627Z,50
2016-03-31T06:16:30.724Z,55
2016-03-31T06:17:31.024Z,50
2016-03-31T06:18:31.026Z,50
2016-03-31T06:19:30.997Z,50
2016-03-31T06:20:31.203Z,50
2016-03-31T06:21:45.549Z,50
2016-03-31T06:22:31.287Z,50
2016-03-31T06:23:31.071Z,50
2016-03-31T06:24:30.870Z,45
2016-03-31T06:26:31.016Z,40
2016-03-31T06:27:31.207Z,40
2016-03-31T06:28:31.256Z,50
2016-03-31T06:29:31.009Z,65
2016-03-31T06:30:31.027Z,75
2016-03-31T06:31:30.904Z,85
2016-03-31T06:32:31.282Z,85
2016-03-31T06:33:31.034Z,95
2016-03-31T06:34:31.054Z,95
2016-03-31T06:35:31.056Z,95
2016-03-31T06:36:31.042Z,90
2016-03-31T06:37:30.906Z,90
2016-03-31T06:38:31.033Z,100
2016-03-31T06:39:31.301Z,105
2016-03-31T06:40:31.117Z,110
2016-03-31T06:41:31.103Z,120
2016-03-31T06:42:31.309Z,125
2016-03-31T06:43:31.093Z,130
2016-03-31T06:44:31.064Z,145
2016-03-31T06:45:31.083Z,160
2016-03-31T06:46:31.101Z,170
2016-03-31T06:47:45.386Z,160
2016-03-31T06:48:30.575Z,150
2016-03-31T06:49:31.109Z,140
2016-03-31T06:50:31.269Z,125
2016-03-31T06:51:45.412Z,125
2016-03-31T06:52:31.273Z,135
2016-03-31T06:53:31.121Z,145
2016-03-31T06:54:31.123Z,150
2016-03-31T06:55:31.548Z,150
2016-03-31T06:56:31.144Z,145
2016-03-31T06:57:31.099Z,140
2016-03-31T06:58:31.134Z,145
2016-03-31T06:59:31.120Z,150
2016-03-31T07:00:31.498Z,175
2016-03-31T07:01:31.532Z,195
2016-03-31T07:02:31.112Z,200
2016-03-31T07:03:31.320Z,200
2016-03-31T07:05:31.136Z,220
2016-03-31T07:06:31.124Z,240
2016-03-31T07:07:30.986Z,260
2016-03-31T07:08:31.869Z,280
2016-03-31T07:09:45.230Z,285
2016-03-31T07:10:31.139Z,280
2016-03-31T07:11:31.158Z,280
2016-03-31T07:12:45.894Z,290
2016-03-31T07:13:31.163Z,285
2016-03-31T07:14:45.260Z,250
2016-03-31T07:15:31.371Z,225
2016-03-31T07:16:31.359Z,215
2016-03-31T07:18:31.457Z,225
2016-03-31T07:19:31.164Z,235
2016-03-31T07:20:31.713Z,235
2016-03-31T07:21:31.168Z,215
2016-03-31T07:22:31.234Z,185
2016-03-31T07:23:31.644Z,165
2016-03-31T07:24:31.193Z,155
2016-03-31T07:25:31.836Z,150
2016-03-31T07:26:31.604Z,145
2016-03-31T07:27:31.373Z,145
2016-03-31T07:28:31.594Z,145
2016-03-31T07:29:31.222Z,155
2016-03-31T07:30:31.225Z,165
2016-03-31T07:31:31.211Z,185
2016-03-31T07:32:30.933Z,205
2016-03-31T07:33:31.451Z,230
2016-03-31T07:34:30.767Z,240
2016-03-31T07:35:45.347Z,220
2016-03-31T07:36:31.444Z,205
2016-03-31T07:37:31.228Z,200
2016-03-31T07:38:31.449Z,200
2016-03-31T07:39:31.249Z,205
2016-03-31T07:40:31.517Z,220
2016-03-31T07:41:31.363Z,235
2016-03-31T07:42:31.475Z,235
2016-03-31T07:43:31.244Z,250
2016-03-31T07:44:31.263Z,255
2016-03-31T07:45:32.296Z,270
2016-03-31T07:46:31.127Z,275
2016-03-31T07:47:31.504Z,255
2016-03-31T07:48:31.258Z,215
2016-03-31T07:49:31.307Z,175
2016-03-31T07:50:31.279Z,160
2016-03-31T07:51:31.266Z,155
2016-03-31T07:52:31.487Z,140
2016-03-31T07:53:32.130Z,135
2016-03-31T07:54:31.351Z,135
2016-03-31T07:55:31.557Z,140
2016-03-31T07:56:31.310Z,150
2016-03-31T07:57:31.359Z,170
2016-03-31T07:58:31.581Z,185
2016-03-31T07:59:31.303Z,190
2016-03-31T08:00:31.321Z,190
2016-03-31T08:01:31.417Z,175
2016-03-31T08:02:31.498Z,155
2016-03-31T08:03:45.813Z,135
2016-03-31T08:05:45.459Z,155
2016-03-31T08:06:31.368Z,165
2016-03-31T08:07:31.340Z,155
2016-03-31T08:08:31.373Z,150
2016-03-31T08:09:31.361Z,150
2016-03-31T08:10:31.348Z,160
2016-03-31T08:11:31.367Z,170
2016-03-31T08:12:45.853Z,185
2016-03-31T08:13:45.169Z,215
2016-03-31T08:14:31.546Z,250
2016-03-31T08:15:45.471Z,325
2016-03-31T08:16:31.379Z,355
2016-03-31T08:17:31.367Z,360
2016-03-31T08:18:31.588Z,365
2016-03-31T08:19:31.372Z,375
2016-03-31T08:20:31.374Z,410
2016-03-31T08:21:31.643Z,435
2016-03-31T08:22:31.443Z,420
2016-03-31T08:23:31.601Z,405
2016-03-31T08:24:31.401Z,350
2016-03-31T08:25:31.418Z,295
2016-03-31T08:26:31.421Z,245
2016-03-31T08:27:31.424Z,230
2016-03-31T08:28:31.864Z,230
2016-03-31T08:29:31.680Z,240
2016-03-31T08:30:31.495Z,255
2016-03-31T08:31:31.451Z,275
2016-03-31T08:33:31.675Z,310
2016-03-31T08:34:31.678Z,320
2016-03-31T08:35:31.650Z,320
2016-03-31T08:36:31.480Z,325
2016-03-31T08:37:31.701Z,315
2016-03-31T08:38:31.470Z,310
2016-03-31T08:39:31.519Z,315
2016-03-31T08:40:32.101Z,335
2016-03-31T08:41:31.009Z,360
2016-03-31T08:42:31.465Z,410
2016-03-31T08:43:31.515Z,470
2016-03-31T08:44:31.486Z,510
2016-03-31T08:45:31.723Z,490
2016-03-31T08:46:31.508Z,510
2016-03-31T08:47:31.525Z,525
2016-03-31T08:48:31.528Z,545
2016-03-31T08:49:31.531Z,525
2016-03-31T08:50:31.580Z,475
2016-03-31T08:51:45.832Z,420
2016-03-31T08:52:31.976Z,375
2016-03-31T08:53:45.901Z,330
2016-03-31T08:54:31.560Z,320
2016-03-31T08:55:31.749Z,330
2016-03-31T08:56:31.565Z,330
2016-03-31T08:57:31.568Z,330
2016-03-31T08:58:31.555Z,325
2016-03-31T08:59:45.885Z,305
2016-03-31T09:00:31.607Z,295
2016-03-31T09:01:31.626Z,275
2016-03-31T09:02:31.113Z,265
2016-03-31T09:03:31.834Z,270
2016-03-31T09:04:31.430Z,280
2016-03-31T09:05:45.918Z,285
2016-03-31T09:06:31.623Z,280
2016-03-31T09:07:31.625Z,270
2016-03-31T09:08:31.628Z,270
2016-03-31T09:09:31.162Z,270
2016-03-31T09:10:31.712Z,270
2016-03-31T09:11:33.449Z,255
2016-03-31T09:12:31.842Z,235
2016-03-31T09:13:31.564Z,225
2016-03-31T09:14:31.707Z,210
2016-03-31T09:15:31.694Z,210
2016-03-31T09:16:31.681Z,225
2016-03-31T09:17:31.684Z,255
2016-03-31T09:18:31.672Z,280
2016-03-31T09:19:31.689Z,295
2016-03-31T09:20:31.708Z,310
2016-03-31T09:21:31.945Z,320
2016-03-31T09:22:31.557Z,335
2016-03-31T09:23:31.185Z,335
2016-03-31T09:24:31.718Z,345
2016-03-31T09:25:31.628Z,345
2016-03-31T09:26:31.958Z,335
2016-03-31T09:28:31.668Z,320
2016-03-31T09:29:31.935Z,340
2016-03-31T09:30:34.298Z,365
2016-03-31T09:31:31.878Z,385
2016-03-31T09:32:31.787Z,400
2016-03-31T09:33:32.056Z,390
2016-03-31T09:34:31.762Z,380
2016-03-31T09:35:32.061Z,375
2016-03-31T09:36:31.673Z,370
2016-03-31T09:37:31.817Z,365
2016-03-31T09:38:33.194Z,375
2016-03-31T09:39:32.025Z,385
2016-03-31T09:40:32.012Z,390
2016-03-31T09:41:31.531Z,380
2016-03-31T09:42:31.798Z,340
2016-03-31T09:43:32.239Z,295
2016-03-31T09:44:31.851Z,250
2016-03-31T09:45:32.182Z,230
2016-03-31T09:46:31.856Z,220
2016-03-31T09:47:46.108Z,210
2016-03-31T09:48:45.939Z,200
2016-03-31T09:49:31.848Z,195
2016-03-31T09:50:31.866Z,195
2016-03-31T09:51:31.135Z,195
2016-03-31T09:52:32.013Z,205
2016-03-31T09:53:32.063Z,215
2016-03-31T09:54:31.878Z,220
2016-03-31T09:55:32.411Z,215
2016-03-31T09:56:31.899Z,215
2016-03-31T09:57:31.371Z,225
2016-03-31T09:58:32.123Z,230
2016-03-31T09:59:31.954Z,245
2016-03-31T10:00:31.909Z,265
2016-03-31T10:01:31.974Z,285
2016-03-31T10:02:31.930Z,305
2016-03-31T10:03:46.043Z,315
2016-03-31T10:04:31.952Z,320
2016-03-31T10:05:31.688Z,320
2016-03-31T10:06:31.940Z,325
2016-03-31T10:07:32.178Z,340
2016-03-31T10:08:32.150Z,355
2016-03-31T10:09:32.028Z,355
2016-03-31T10:10:31.968Z,345
2016-03-31T10:11:32.033Z,335
2016-03-31T10:12:32.019Z,320
2016-03-31T10:13:32.334Z,310
2016-03-31T10:14:31.994Z,285
2016-03-31T10:15:32.653Z,265
2016-03-31T10:16:31.984Z,250
2016-03-31T10:17:31.986Z,245
2016-03-31T10:18:31.989Z,240
2016-03-31T10:19:32.008Z,245
2016-03-31T10:20:32.010Z,250
2016-03-31T10:21:32.217Z,250
2016-03-31T10:22:32.047Z,230
2016-03-31T10:23:32.503Z,205
2016-03-31T10:24:32.036Z,185
2016-03-31T10:25:32.039Z,185
2016-03-31T10:26:32.042Z,190
2016-03-31T10:27:32.060Z,200
2016-03-31T10:28:32.250Z,215
2016-03-31T10:29:32.284Z,215
2016-03-31T10:30:32.068Z,210
2016-03-31T10:31:32.087Z,210
2016-03-31T10:32:46.324Z,235
2016-03-31T10:33:32.092Z,245
2016-03-31T10:34:32.095Z,245
2016-03-31T10:35:46.222Z,235
2016-03-31T10:36:32.131Z,230
2016-03-31T10:37:32.134Z,235
2016-03-31T10:38:32.106Z,260
2016-03-31T10:39:32.343Z,295
2016-03-31T10:40:32.345Z,310
2016-03-31T10:41:32.395Z,300
2016-03-31T10:42:46.600Z,290
2016-03-31T10:43:32.620Z,290
2016-03-31T10:44:32.903Z,285
2016-03-31T10:46:32.142Z,235
2016-03-31T10:47:32.192Z,210
2016-03-31T10:48:31.883Z,200
2016-03-31T10:49:32.416Z,200
2016-03-31T10:51:32.422Z,210
2016-03-31T10:52:32.409Z,225
2016-03-31T10:53:32.239Z,240
2016-03-31T10:54:32.649Z,250
2016-03-31T10:55:32.416Z,260
2016-03-31T10:56:32.232Z,285
2016-03-31T10:57:32.219Z,325
2016-03-31T10:58:32.425Z,355
2016-03-31T10:59:46.319Z,380
2016-03-31T11:00:32.430Z,340
2016-03-31T11:01:46.558Z,305
2016-03-31T11:02:32.280Z,275
2016-03-31T11:03:32.329Z,245
2016-03-31T11:04:32.254Z,225
2016-03-31T11:05:32.319Z,220
2016-03-31T11:07:00.696Z,225
2016-03-31T11:07:32.762Z,235
2016-03-31T11:08:46.654Z,255
2016-03-31T11:09:32.532Z,270
2016-03-31T11:10:46.395Z,265
2016-03-31T11:11:32.491Z,275
2016-03-31T11:12:32.493Z,290
2016-03-31T11:13:32.340Z,295
2016-03-31T11:14:32.531Z,305
2016-03-31T11:15:32.377Z,300
2016-03-31T11:16:32.348Z,295
2016-03-31T11:17:46.664Z,305
2016-03-31T11:18:32.182Z,310
2016-03-31T11:19:32.356Z,315
2016-03-31T11:20:32.328Z,315
2016-03-31T11:21:32.362Z,335
2016-03-31T11:22:32.364Z,355
2016-03-31T11:23:32.555Z,345
2016-03-31T11:24:32.386Z,310
2016-03-31T11:25:32.576Z,290
2016-03-31T11:26:32.610Z,275
2016-03-31T11:27:32.378Z,300
2016-03-31T11:28:32.380Z,330
2016-03-31T11:29:46.524Z,340
2016-03-31T11:30:32.823Z,370
2016-03-31T11:31:32.419Z,370
2016-03-31T11:32:32.438Z,345
2016-03-31T11:33:32.440Z,305
2016-03-31T11:34:32.647Z,260
2016-03-31T11:35:32.868Z,255
2016-03-31T11:36:32.698Z,240
2016-03-31T11:37:32.295Z,230
2016-03-31T11:38:32.454Z,225
2016-03-31T11:39:32.660Z,220
2016-03-31T11:40:32.554Z,220
2016-03-31T11:41:32.462Z,225
2016-03-31T11:42:32.481Z,240
2016-03-31T11:43:32.358Z,270
2016-03-31T11:44:32.533Z,290
2016-03-31T11:45:32.504Z,295
2016-03-31T11:46:32.773Z,280
2016-03-31T11:47:32.244Z,265
2016-03-31T11:48:46.840Z,260
2016-03-31T11:49:32.780Z,260
2016-03-31T11:50:32.439Z,265
2016-03-31T11:51:32.739Z,265
2016-03-31T11:52:32.539Z,260
2016-03-31T11:53:32.558Z,260
2016-03-31T11:54:32.560Z,255
2016-03-31T11:55:32.609Z,265
2016-03-31T11:56:32.565Z,270
2016-03-31T11:57:33.208Z,260
2016-03-31T11:58:32.789Z,245
2016-03-31T11:59:32.166Z,225
2016-03-31T12:00:32.608Z,225
2016-03-31T12:01:32.610Z,225
2016-03-31T12:02:32.800Z,230
2016-03-31T12:03:32.616Z,240
2016-03-31T12:04:49.744Z,270
2016-03-31T12:05:32.621Z,275
2016-03-31T12:06:46.577Z,295
2016-03-31T12:07:32.860Z,315
2016-03-31T12:08:32.629Z,330
2016-03-31T12:09:32.662Z,340
2016-03-31T12:11:32.856Z,300
2016-03-31T12:12:32.562Z,285
2016-03-31T12:13:32.690Z,255
2016-03-31T12:14:33.332Z,235
2016-03-31T12:15:32.710Z,225
2016-03-31T12:16:32.728Z,215
2016-03-31T12:17:32.731Z,215
2016-03-31T12:18:32.717Z,225
2016-03-31T12:19:32.737Z,230
2016-03-31T12:20:32.755Z,235
2016-03-31T12:21:32.023Z,250
2016-03-31T12:22:32.745Z,285
2016-03-31T12:23:32.764Z,355
2016-03-31T12:25:32.769Z,450
2016-03-31T12:26:32.771Z,415
2016-03-31T12:27:32.774Z,365
2016-03-31T12:28:32.979Z,365
2016-03-31T12:30:33.016Z,405
2016-03-31T12:31:32.816Z,405
2016-03-31T12:32:32.568Z,380
2016-03-31T12:33:32.836Z,350
2016-03-31T12:34:33.245Z,320
2016-03-31T12:35:32.841Z,305
2016-03-31T12:36:32.344Z,300
2016-03-31T12:37:32.863Z,295
2016-03-31T12:38:32.850Z,300
2016-03-31T12:39:32.852Z,335
2016-03-31T12:40:33.277Z,330
2016-03-31T12:41:32.842Z,245
2016-03-31T12:42:32.907Z,205
2016-03-31T12:43:32.879Z,205
2016-03-31T12:44:32.898Z,210
2016-03-31T12:45:32.947Z,215
2016-03-31T12:46:33.137Z,235
2016-03-31T12:47:33.170Z,265
2016-03-31T12:48:32.939Z,280
2016-03-31T12:49:32.942Z,305
2016-03-31T12:50:33.148Z,350
2016-03-31T12:51:32.979Z,380
2016-03-31T12:52:33.184Z,355
2016-03-31T12:53:32.953Z,340
2016-03-31T12:54:33.142Z,300
2016-03-31T12:55:33.208Z,270
2016-03-31T12:57:33.167Z,305
2016-03-31T12:58:33.028Z,325
2016-03-31T12:59:33.000Z,335
2016-03-31T13:00:32.674Z,340
2016-03-31T13:01:33.037Z,365
2016-03-31T13:02:33.414Z,375
2016-03-31T13:03:33.057Z,380
2016-03-31T13:05:33.220Z,320
2016-03-31T13:06:33.050Z,340
2016-03-31T13:07:33.053Z,360
2016-03-31T13:08:47.353Z,365
2016-03-31T13:09:33.105Z,345
2016-03-31T13:10:33.076Z,305
2016-03-31T13:12:33.129Z,250
2016-03-31T13:13:33.100Z,230
2016-03-31T13:14:33.306Z,210
2016-03-31T13:16:33.140Z,190
2016-03-31T13:17:33.377Z,190
2016-03-31T13:18:47.457Z,195
2016-03-31T13:19:33.070Z,205
2016-03-31T13:20:33.150Z,215
2016-03-31T13:22:33.187Z,215
2016-03-31T13:23:33.378Z,200
2016-03-31T13:24:33.381Z,190
2016-03-31T13:25:33.383Z,175
2016-03-31T13:26:33.042Z,160
2016-03-31T13:27:34.013Z,150
2016-03-31T13:28:33.047Z,140
2016-03-31T13:29:33.237Z,130
2016-03-31T13:30:32.739Z,120
2016-03-31T13:31:33.246Z,120
2016-03-31T13:32:33.199Z,125
2016-03-31T13:33:33.402Z,130
2016-03-31T13:34:33.182Z,125
2016-03-31T13:35:33.165Z,125
2016-03-31T13:36:33.390Z,130
2016-03-31T13:37:33.370Z,140
2016-03-31T13:38:33.382Z,155
2016-03-31T13:39:33.347Z,175
2016-03-31T13:40:33.170Z,200
2016-03-31T13:41:33.185Z,195
2016-03-31T13:42:33.201Z,165
2016-03-31T13:43:33.404Z,175
2016-03-31T13:44:33.170Z,170
2016-03-31T13:45:33.171Z,155
2016-03-31T13:46:33.172Z,135
2016-03-31T13:47:32.735Z,140
2016-03-31T13:48:33.190Z,180
2016-03-31T13:49:33.192Z,190
2016-03-31T13:50:33.178Z,170
2016-03-31T13:51:33.211Z,150
2016-03-31T13:52:33.432Z,140
2016-03-31T13:53:33.216Z,135
2016-03-31T13:54:33.234Z,140
2016-03-31T13:55:33.220Z,135
2016-03-31T13:56:33.254Z,125
2016-03-31T13:57:33.647Z,130
2016-03-31T13:58:33.462Z,135
2016-03-31T13:59:33.433Z,140
2016-03-31T14:00:47.812Z,145
2016-03-31T14:01:33.283Z,160
2016-03-31T14:02:33.317Z,185
2016-03-31T14:03:33.289Z,185
2016-03-31T14:04:33.494Z,190
2016-03-31T14:05:33.481Z,190
2016-03-31T14:06:33.312Z,160
2016-03-31T14:07:33.300Z,150
2016-03-31T14:08:33.302Z,180
2016-03-31T14:09:33.508Z,210
2016-03-31T14:10:33.308Z,220
2016-03-31T14:11:33.310Z,225
2016-03-31T14:12:33.313Z,215
2016-03-31T14:13:33.362Z,160
2016-03-31T14:14:33.333Z,165
2016-03-31T14:15:33.336Z,190
2016-03-31T14:16:33.354Z,160
2016-03-31T14:17:33.341Z,130
2016-03-31T14:18:33.798Z,135
2016-03-31T14:19:33.582Z,115
2016-03-31T14:20:48.116Z,100
2016-03-31T14:21:47.477Z,100
2016-03-31T14:22:47.184Z,95
2016-03-31T14:23:32.873Z,100
2016-03-31T14:24:33.439Z,100
2016-03-31T14:25:32.770Z,105
2016-03-31T14:26:33.398Z,115
2016-03-31T14:27:33.384Z,140
2016-03-31T14:28:33.419Z,140
2016-03-31T14:29:33.640Z,125
2016-03-31T14:30:33.437Z,115
2016-03-31T14:31:33.159Z,115
2016-03-31T14:32:33.442Z,115
2016-03-31T14:33:33.445Z,110
2016-03-31T14:34:33.448Z,110
2016-03-31T14:35:33.262Z,105
2016-03-31T14:36:33.437Z,100
2016-03-31T14:37:33.440Z,95
2016-03-31T14:38:33.162Z,90
2016-03-31T14:39:33.462Z,90